Time;durP1;ratioP1;P1;durP2;ratioP2;P2;SDS_P1;SDS_P2;PMS_P1;PMS_P2;Temp;Humidity;BMP_temperature;BMP_pressure;BME280_temperature;BME280_humidity;BME280_pressure;Samples;Min_cycle;Max_cycle;Signal;HPM_P1;HPM_P2
2021/09/03 00:02:21;;;;;;;;;14.00;12.25;;;;;21.91;49.68;101557.59;5040299;28;45431;-75
2021/09/03 00:04:47;;;;;;;;;15.25;15.25;;;;;21.89;49.34;101549.53;5041292;28;45351;-75
2021/09/03 00:07:12;;;;;;;;;17.00;13.75;;;;;21.89;49.58;101559.56;5041537;28;45521;-75
2021/09/03 00:09:38;;;;;;;;;13.25;13.25;;;;;21.80;49.75;101545.59;5041017;28;45876;-75
2021/09/03 00:12:06;;;;;;;;;12.25;11.75;;;;;21.86;49.56;101548.88;5022573;28;45499;-76
2021/09/03 00:14:33;;;;;;;;;13.25;11.50;;;;;21.83;49.66;101549.94;5040035;28;45511;-75
2021/09/03 00:16:59;;;;;;;;;13.50;13.25;;;;;21.84;49.73;101541.69;5039542;28;45477;-75
2021/09/03 00:19:25;;;;;;;;;13.50;12.00;;;;;21.81;49.77;101541.91;5040805;28;45588;-75
2021/09/03 00:21:52;;;;;;;;;13.25;13.00;;;;;21.81;49.67;101549.19;5039034;28;45384;-75
2021/09/03 00:24:18;;;;;;;;;13.50;13.50;;;;;21.80;50.34;101544.72;5041155;28;45348;-75
2021/09/03 00:26:43;;;;;;;;;11.50;11.50;;;;;21.71;50.09;101535.34;5041467;28;45234;-75
2021/09/03 00:29:08;;;;;;;;;14.25;13.00;;;;;21.71;49.69;101539.91;5040517;28;45248;-75
2021/09/03 00:31:34;;;;;;;;;11.00;11.00;;;;;21.68;49.90;101540.97;5041022;28;47684;-76
2021/09/03 00:33:59;;;;;;;;;12.25;11.75;;;;;21.71;49.97;101539.91;5040626;28;45394;-75
2021/09/03 00:36:24;;;;;;;;;13.75;12.50;;;;;21.73;50.25;101546.09;5041267;28;45367;-75
2021/09/03 00:38:49;;;;;;;;;15.50;14.75;;;;;21.68;49.65;101531.97;5040306;28;49628;-75
2021/09/03 00:41:15;;;;;;;;;14.00;12.75;;;;;21.66;50.09;101529.34;5040667;28;45304;-76
2021/09/03 00:43:42;;;;;;;;;11.25;11.25;;;;;21.70;50.48;101538.16;5040806;28;45348;-75
2021/09/03 00:46:07;;;;;;;;;16.75;14.75;;;;;21.68;50.48;101535.53;5037984;28;45663;-75
2021/09/03 00:48:32;;;;;;;;;16.00;14.50;;;;;21.67;50.12;101528.38;5029874;28;57572;-75
2021/09/03 00:50:58;;;;;;;;;14.25;14.25;;;;;21.64;50.04;101524.00;5040713;28;45403;-75
2021/09/03 00:53:24;;;;;;;;;14.00;13.25;;;;;21.63;50.08;101521.41;5040664;28;45363;-75
2021/09/03 00:55:50;;;;;;;;;12.25;11.00;;;;;21.60;50.22;101519.78;5027301;28;45643;-75
2021/09/03 00:58:15;;;;;;;;;13.50;13.50;;;;;21.58;50.08;101513.53;5040293;28;46476;-75
2021/09/03 01:00:41;;;;;;;;;15.75;15.00;;;;;21.57;50.09;101513.69;5040456;28;45330;-75
2021/09/03 01:03:06;;;;;;;;;13.00;13.00;;;;;21.54;50.27;101503.00;5040703;28;45307;-75
2021/09/03 01:05:31;;;;;;;;;12.25;12.25;;;;;21.57;50.61;101513.69;5046407;28;45289;-75
2021/09/03 01:07:58;;;;;;;;;13.00;12.25;;;;;21.56;50.09;101506.50;5047398;28;47279;-75
2021/09/03 01:10:23;;;;;;;;;17.50;13.50;;;;;21.51;50.36;101503.22;5040408;28;45564;-75
2021/09/03 01:12:50;;;;;;;;;13.25;13.25;;;;;21.51;50.77;101504.06;5039791;28;45223;-75
2021/09/03 01:15:17;;;;;;;;;16.00;12.25;;;;;21.52;50.85;101508.53;5036285;28;45319;-75
2021/09/03 01:17:43;;;;;;;;;15.50;11.75;;;;;21.51;50.72;101509.50;5038229;28;46546;-75
2021/09/03 01:20:10;;;;;;;;;14.00;13.50;;;;;21.49;50.51;101503.31;5040058;28;45299;-75
2021/09/03 01:22:36;;;;;;;;;14.75;14.75;;;;;21.39;51.08;101492.16;5040209;28;45279;-75
2021/09/03 01:25:02;;;;;;;;;13.00;13.00;;;;;21.43;50.84;101488.28;5040320;28;45538;-75
2021/09/03 01:27:27;;;;;;;;;16.75;15.25;;;;;21.44;50.89;101489.13;5040034;28;45411;-75
2021/09/03 01:29:53;;;;;;;;;15.75;14.50;;;;;21.38;51.39;101489.53;5039940;28;45289;-76
2021/09/03 01:32:18;;;;;;;;;16.25;15.75;;;;;21.40;50.87;101488.47;5033247;28;45188;-75
2021/09/03 01:34:44;;;;;;;;;14.75;13.00;;;;;21.36;51.42;101486.91;5040017;28;45310;-75
2021/09/03 01:37:09;;;;;;;;;13.25;13.25;;;;;21.36;51.67;101484.19;5039880;28;46149;-75
2021/09/03 01:39:35;;;;;;;;;15.75;13.25;;;;;21.36;51.53;101484.19;5039865;28;45344;-75
2021/09/03 01:42:01;;;;;;;;;16.25;15.25;;;;;21.31;51.74;101480.91;5039734;28;45518;-75
2021/09/03 01:44:26;;;;;;;;;15.50;15.00;;;;;21.35;51.50;101478.88;5039986;28;45421;-75
2021/09/03 01:46:52;;;;;;;;;15.50;15.50;;;;;21.35;51.46;101482.47;5033639;28;45511;-76
2021/09/03 01:49:18;;;;;;;;;14.25;14.25;;;;;21.33;51.40;101489.81;5039519;28;45249;-75
2021/09/03 01:51:43;;;;;;;;;16.50;15.50;;;;;21.33;51.93;101483.53;5041340;28;45271;-75
2021/09/03 01:54:09;;;;;;;;;16.50;16.50;;;;;21.31;52.10;101480.91;5046266;28;45486;-75
2021/09/03 01:56:34;;;;;;;;;16.25;14.25;;;;;21.25;51.91;101478.59;5032064;28;45453;-75
2021/09/03 01:58:59;;;;;;;;;16.00;15.25;;;;;21.28;51.61;101484.72;5039405;28;45308;-75
2021/09/03 02:01:25;;;;;;;;;16.50;15.25;;;;;21.27;52.06;101488.41;5039804;28;45303;-75
2021/09/03 02:03:50;;;;;;;;;16.75;15.75;;;;;21.21;51.66;101477.94;5039298;28;45226;-75
2021/09/03 02:06:15;;;;;;;;;15.50;15.25;;;;;21.20;51.75;101472.59;5039763;28;45257;-75
2021/09/03 02:08:41;;;;;;;;;17.00;16.25;;;;;21.18;52.34;101466.41;5039198;28;45218;-75
2021/09/03 02:11:06;;;;;;;;;15.50;14.75;;;;;21.15;52.45;101462.06;5039863;28;45293;-75
2021/09/03 02:13:31;;;;;;;;;16.00;15.25;;;;;21.16;52.27;101466.50;5039192;28;45497;-75
2021/09/03 02:15:57;;;;;;;;;17.50;13.50;;;;;21.18;52.44;101472.69;5039267;28;45253;-75
2021/09/03 02:18:22;;;;;;;;;15.75;15.75;;;;;21.16;52.46;101471.06;5038848;28;45436;-75
2021/09/03 02:20:47;;;;;;;;;17.25;17.00;;;;;21.15;52.46;101469.31;5039461;28;45712;-75
2021/09/03 02:23:13;;;;;;;;;17.25;16.75;;;;;21.12;52.34;101470.41;5039491;28;45375;-75
2021/09/03 02:25:38;;;;;;;;;19.25;19.25;;;;;21.04;52.29;101464.59;5042239;28;46396;-75
2021/09/03 02:28:04;;;;;;;;;15.50;15.50;;;;;21.05;52.77;101469.94;5042550;28;45188;-76
2021/09/03 02:30:30;;;;;;;;;17.50;16.25;;;;;21.07;52.78;101476.13;5042986;28;45321;-75
2021/09/03 02:32:55;;;;;;;;;21.00;17.25;;;;;21.09;52.75;101485.03;5042788;28;45245;-75
2021/09/03 02:35:21;;;;;;;;;18.00;16.50;;;;;21.09;52.78;101484.16;5042464;28;46218;-75
2021/09/03 02:37:46;;;;;;;;;18.75;16.75;;;;;21.07;52.90;101473.41;5042530;28;45315;-75
2021/09/03 02:40:12;;;;;;;;;17.50;15.50;;;;;21.02;52.91;101466.56;5042789;28;45438;-75
2021/09/03 02:42:37;;;;;;;;;18.50;18.00;;;;;21.01;53.02;101465.66;5056137;28;45755;-75
2021/09/03 02:45:03;;;;;;;;;17.25;14.50;;;;;21.04;52.51;101470.03;5042672;28;46263;-75
2021/09/03 02:47:29;;;;;;;;;15.25;15.25;;;;;20.99;52.57;101453.19;5035988;28;45285;-75
2021/09/03 02:49:54;;;;;;;;;17.00;16.00;;;;;21.03;52.60;101463.75;5042371;28;45358;-75
2021/09/03 02:52:20;;;;;;;;;17.75;16.25;;;;;21.03;52.59;101462.84;5042585;28;45446;-75
2021/09/03 02:54:45;;;;;;;;;18.75;17.75;;;;;21.03;52.59;101457.41;5034272;28;45229;-76
2021/09/03 02:57:10;;;;;;;;;15.50;14.25;;;;;21.00;53.03;101458.50;5042172;28;46572;-76
2021/09/03 02:59:35;;;;;;;;;22.00;19.00;;;;;21.02;53.05;101463.84;5042220;28;45399;-75
2021/09/03 03:02:01;;;;;;;;;18.25;18.25;;;;;21.01;52.76;101462.09;5042225;28;45453;-75
2021/09/03 03:04:26;;;;;;;;;19.75;18.25;;;;;20.97;52.65;101457.84;5042165;28;46371;-75
2021/09/03 03:06:51;;;;;;;;;18.75;17.50;;;;;20.96;52.91;101439.81;5042232;28;45234;-75
2021/09/03 03:09:17;;;;;;;;;17.25;17.25;;;;;20.99;53.27;101459.47;5042094;28;46583;-76
2021/09/03 03:11:42;;;;;;;;;19.25;16.25;;;;;20.98;52.82;101460.47;5042153;28;45183;-75
2021/09/03 03:14:14;;;;;;;;;19.25;18.50;;;;;20.94;53.45;101444.47;5042063;28;45445;-75
2021/09/03 03:16:40;;;;;;;;;21.50;20.25;;;;;20.95;53.04;101443.47;5040498;28;45464;-75
2021/09/03 03:19:05;;;;;;;;;19.50;19.00;;;;;20.98;53.07;101452.31;5041880;28;45236;-75
2021/09/03 03:21:31;;;;;;;;;19.50;18.00;;;;;20.92;53.54;101444.56;5046438;28;45180;-75
2021/09/03 03:23:56;;;;;;;;;18.75;18.75;;;;;20.91;53.50;101442.81;5050936;28;45821;-76
2021/09/03 03:26:22;;;;;;;;;27.00;23.50;;;;;20.90;53.45;101449.22;5041984;28;45481;-76
2021/09/03 03:28:47;;;;;;;;;20.75;19.50;;;;;20.94;53.03;101448.03;5042065;28;45291;-75
2021/09/03 03:31:12;;;;;;;;;22.50;21.25;;;;;20.94;53.22;101441.75;5041725;28;45272;-75
2021/09/03 03:33:38;;;;;;;;;22.25;22.25;;;;;20.90;53.14;101438.38;5041635;28;46010;-75
2021/09/03 03:36:04;;;;;;;;;24.50;22.25;;;;;20.83;53.12;101423.44;5041105;28;45164;-76
2021/09/03 03:38:29;;;;;;;;;26.75;21.75;;;;;20.83;53.63;101437.91;5041981;28;45446;-75
2021/09/03 03:40:55;;;;;;;;;27.25;24.75;;;;;20.80;53.52;101435.38;5041520;28;45394;-74
2021/09/03 03:43:20;;;;;;;;;27.00;24.75;;;;;20.72;53.41;101429.56;5053097;28;45372;-75
2021/09/03 03:45:45;;;;;;;;;23.75;21.75;;;;;20.71;53.23;101434.13;5042329;28;45524;-75
2021/09/03 03:48:11;;;;;;;;;22.50;20.75;;;;;20.68;53.47;101438.84;5034175;28;45319;-75
2021/09/03 03:50:36;;;;;;;;;30.00;22.00;;;;;20.67;54.08;101442.56;5040876;28;45295;-75
2021/09/03 03:53:01;;;;;;;;;27.50;25.50;;;;;20.70;53.70;101454.06;5041532;28;46342;-75
2021/09/03 03:55:27;;;;;;;;;24.00;21.00;;;;;20.64;53.60;101440.03;5027952;28;45410;-75
2021/09/03 03:57:52;;;;;;;;;23.75;20.25;;;;;20.65;53.65;101448.09;5041691;28;45280;-76
2021/09/03 04:00:17;;;;;;;;;21.50;21.50;;;;;20.64;53.69;101448.16;5041393;28;45326;-75
2021/09/03 04:02:43;;;;;;;;;24.50;22.50;;;;;20.63;53.80;101447.31;5041412;28;45331;-75
2021/09/03 04:05:08;;;;;;;;;25.25;23.75;;;;;20.62;53.85;101452.81;5040851;28;45421;-75
2021/09/03 04:07:34;;;;;;;;;21.50;20.25;;;;;20.55;53.89;101447.75;5040955;28;45403;-75
2021/09/03 04:09:59;;;;;;;;;25.00;22.50;;;;;20.57;53.78;101449.50;5043937;28;46915;-76
2021/09/03 04:12:24;;;;;;;;;22.75;22.00;;;;;20.50;54.05;101446.31;5052161;28;45425;-76
2021/09/03 04:14:50;;;;;;;;;25.00;23.00;;;;;20.53;53.88;101448.81;5040758;28;45340;-75
2021/09/03 04:17:15;;;;;;;;;27.50;26.50;;;;;20.51;53.96;101437.19;5041228;28;45259;-75
2021/09/03 04:19:40;;;;;;;;;23.75;21.50;;;;;20.44;54.06;101433.13;5040904;28;45794;-75
2021/09/03 04:22:06;;;;;;;;;26.00;23.25;;;;;20.40;54.21;101429.75;5041293;28;45264;-76
2021/09/03 04:24:31;;;;;;;;;26.00;25.25;;;;;20.42;54.08;101440.50;5040971;28;45208;-75
2021/09/03 04:26:56;;;;;;;;;25.25;22.75;;;;;20.40;54.01;101436.97;5041335;28;45663;-76
2021/09/03 04:29:23;;;;;;;;;21.50;21.50;;;;;20.36;54.17;101439.91;5040677;28;45532;-76
2021/09/03 04:31:48;;;;;;;;;27.25;23.25;;;;;20.35;54.32;101437.31;5040876;28;46619;-75
2021/09/03 04:34:13;;;;;;;;;23.75;22.25;;;;;20.27;53.81;101432.34;5040561;28;45269;-76
2021/09/03 04:36:39;;;;;;;;;26.25;26.25;;;;;20.27;53.90;101432.34;5040658;28;45295;-76
2021/09/03 04:39:04;;;;;;;;;25.00;23.50;;;;;20.30;54.18;101434.88;5040538;28;45238;-75
2021/09/03 04:41:29;;;;;;;;;26.00;24.00;;;;;20.29;54.32;101438.53;5040606;28;46024;-76
2021/09/03 04:43:56;;;;;;;;;20.50;20.50;;;;;20.28;54.15;101444.94;5040570;28;45284;-75
2021/09/03 04:46:21;;;;;;;;;25.50;23.25;;;;;20.27;54.39;101437.75;5041144;28;45284;-75
2021/09/03 04:48:46;;;;;;;;;21.50;20.00;;;;;20.24;54.38;101432.53;5040351;28;45396;-75
2021/09/03 04:51:12;;;;;;;;;23.75;23.50;;;;;20.21;54.67;101421.88;5040562;28;46256;-75
2021/09/03 04:53:37;;;;;;;;;26.25;21.25;;;;;20.26;54.64;101430.59;5039265;28;45350;-75
2021/09/03 04:56:03;;;;;;;;;20.50;19.75;;;;;20.22;54.25;101423.63;5028576;28;45470;-75
2021/09/03 04:58:28;;;;;;;;;23.25;23.25;;;;;20.25;54.26;101433.44;5040455;28;45418;-76
2021/09/03 05:00:53;;;;;;;;;26.50;23.25;;;;;20.23;54.57;101428.09;5047994;28;46045;-75
2021/09/03 05:03:19;;;;;;;;;26.75;24.00;;;;;20.17;54.31;101418.47;5046002;28;45248;-76
2021/09/03 05:05:44;;;;;;;;;22.50;21.25;;;;;20.21;54.36;101431.84;5040064;28;45368;-76
2021/09/03 05:08:09;;;;;;;;;29.00;24.50;;;;;20.17;54.33;101420.34;5040348;28;45251;-76
2021/09/03 05:10:35;;;;;;;;;28.50;24.00;;;;;20.17;54.66;101423.91;5040415;28;45328;-76
2021/09/03 05:13:00;;;;;;;;;27.50;25.00;;;;;20.19;54.64;101418.41;5040246;28;45297;-76
2021/09/03 05:15:33;;;;;;;;;27.00;27.00;;;;;20.13;54.53;101411.53;5040249;28;45169;-76
2021/09/03 05:17:58;;;;;;;;;27.75;24.75;;;;;20.14;54.58;101417.81;5040004;28;45793;-76
2021/09/03 05:20:25;;;;;;;;;26.50;22.75;;;;;20.17;54.12;101431.19;5040077;28;45375;-75
2021/09/03 05:22:50;;;;;;;;;25.25;22.25;;;;;20.18;54.40;101430.22;5040103;28;45317;-76
2021/09/03 05:25:15;;;;;;;;;24.50;23.75;;;;;20.18;54.51;101433.78;5040377;28;45477;-76
2021/09/03 05:27:42;;;;;;;;;25.75;25.00;;;;;20.16;54.72;101429.41;5040044;28;45244;-76
2021/09/03 05:30:08;;;;;;;;;29.00;27.00;;;;;20.15;54.41;101433.13;5039564;28;46193;-76
2021/09/03 05:32:35;;;;;;;;;26.75;24.75;;;;;20.12;54.65;101428.75;5041801;28;45189;-75
2021/09/03 05:35:00;;;;;;;;;26.25;25.00;;;;;20.13;54.40;101435.03;5039777;28;45405;-76
2021/09/03 05:37:25;;;;;;;;;25.00;25.00;;;;;20.09;54.57;101434.34;5038867;28;45348;-76
2021/09/03 05:39:50;;;;;;;;;27.50;23.75;;;;;20.13;54.45;101438.63;5039375;28;45304;-75
2021/09/03 05:42:18;;;;;;;;;26.25;24.25;;;;;20.06;54.69;101420.13;5039941;28;45295;-75
2021/09/03 05:44:43;;;;;;;;;27.50;24.75;;;;;20.12;54.55;101445.00;5040117;28;45465;-75
2021/09/03 05:47:09;;;;;;;;;27.25;25.00;;;;;20.09;54.53;101439.78;5026241;28;45295;-75
2021/09/03 05:49:34;;;;;;;;;30.00;28.75;;;;;20.10;54.64;101451.50;5039466;28;46199;-76
2021/09/03 05:51:59;;;;;;;;;33.75;27.75;;;;;20.06;54.74;101448.09;5039580;28;45454;-76
2021/09/03 05:54:24;;;;;;;;;25.00;24.25;;;;;20.08;54.99;101450.69;5032341;28;45211;-76
2021/09/03 05:56:50;;;;;;;;;27.00;26.00;;;;;20.06;54.65;101444.50;5033694;28;45418;-76
2021/09/03 05:59:15;;;;;;;;;24.50;23.25;;;;;20.05;54.87;101453.63;5026717;28;46136;-76
2021/09/03 06:01:40;;;;;;;;;21.75;21.50;;;;;20.04;54.97;101457.28;5039420;28;45264;-75
2021/09/03 06:04:06;;;;;;;;;28.00;25.50;;;;;20.04;54.79;101455.44;5039745;28;45237;-75
2021/09/03 06:06:32;;;;;;;;;26.25;26.25;;;;;20.03;55.15;101448.28;5039888;28;45394;-77
2021/09/03 06:08:57;;;;;;;;;26.50;24.75;;;;;19.99;54.84;101450.28;5042647;28;47033;-76
2021/09/03 06:11:26;;;;;;;;;28.00;25.00;;;;;20.01;54.70;101457.47;5038066;28;45289;-75
2021/09/03 06:13:55;;;;;;;;;31.00;28.50;;;;;19.99;54.88;101446.72;5038633;28;45438;-70
2021/09/03 06:16:22;;;;;;;;;27.00;26.75;;;;;20.01;54.81;101446.63;5038679;28;45158;-70
2021/09/03 06:18:47;;;;;;;;;29.00;28.25;;;;;20.02;54.96;101454.66;5038789;28;45490;-69
2021/09/03 06:21:13;;;;;;;;;28.25;26.25;;;;;19.97;54.92;101454.94;5037545;28;45423;-70
2021/09/03 06:23:39;;;;;;;;;27.75;26.25;;;;;19.99;54.94;101463.84;5039075;28;45233;-71
2021/09/03 06:26:04;;;;;;;;;27.50;27.25;;;;;19.99;54.87;101452.13;5037190;28;45496;-71
2021/09/03 06:28:29;;;;;;;;;29.00;27.75;;;;;19.97;55.31;101451.38;5046858;28;46003;-70
2021/09/03 06:30:55;;;;;;;;;30.50;28.25;;;;;19.96;55.25;101447.78;5039055;28;45297;-70
2021/09/03 06:33:20;;;;;;;;;30.25;29.25;;;;;19.98;55.47;101445.00;5038856;28;45358;-70
2021/09/03 06:35:45;;;;;;;;;29.00;27.00;;;;;19.98;55.39;101443.16;5039134;28;45294;-70
2021/09/03 06:38:11;;;;;;;;;30.00;28.00;;;;;19.95;55.15;101435.19;5039071;28;45482;-70
2021/09/03 06:40:36;;;;;;;;;29.25;25.75;;;;;19.96;55.17;101438.78;5038658;28;45319;-70
2021/09/03 06:43:01;;;;;;;;;27.50;26.50;;;;;19.96;55.07;101441.47;5039294;28;45316;-70
2021/09/03 06:45:27;;;;;;;;;27.75;27.50;;;;;19.95;55.25;101445.19;5041031;28;45276;-71
2021/09/03 06:47:52;;;;;;;;;29.50;26.75;;;;;19.95;55.31;101439.75;5041866;28;45980;-71
2021/09/03 06:50:18;;;;;;;;;32.00;28.25;;;;;19.93;55.30;101445.28;5039715;28;45582;-69
2021/09/03 06:52:44;;;;;;;;;29.50;26.50;;;;;19.94;55.00;101449.69;5038930;28;45455;-72
2021/09/03 06:55:10;;;;;;;;;25.75;24.75;;;;;19.90;55.04;101442.75;5027699;28;45309;-76
2021/09/03 06:57:38;;;;;;;;;27.75;26.25;;;;;19.91;55.31;101458.03;5038792;28;46034;-75
2021/09/03 07:00:04;;;;;;;;;23.25;23.25;;;;;19.88;55.10;101452.81;5025443;28;45601;-75
2021/09/03 07:02:29;;;;;;;;;26.25;23.75;;;;;19.87;55.10;101458.31;5035779;28;45451;-68
2021/09/03 07:04:55;;;;;;;;;24.75;23.50;;;;;19.85;55.01;101461.13;5036531;28;45541;-68
2021/09/03 07:07:20;;;;;;;;;22.25;21.25;;;;;19.81;55.24;101459.53;5035478;28;45445;-68
2021/09/03 07:09:45;;;;;;;;;27.25;24.25;;;;;19.81;55.21;101456.81;5040191;28;45788;-66
2021/09/03 07:12:11;;;;;;;;;26.00;24.75;;;;;19.82;55.09;101460.44;5037386;28;45848;-70
2021/09/03 07:14:37;;;;;;;;;31.00;28.25;;;;;19.76;55.20;101453.53;5040774;28;45391;-66
2021/09/03 07:17:02;;;;;;;;;31.00;28.25;;;;;19.77;55.11;101449.88;5044335;28;46942;-65
2021/09/03 07:19:27;;;;;;;;;29.25;28.75;;;;;19.75;55.31;101446.38;5040821;28;45402;-65
2021/09/03 07:21:53;;;;;;;;;35.50;27.50;;;;;19.72;55.61;101441.09;5040305;28;45433;-65
2021/09/03 07:24:18;;;;;;;;;26.25;25.75;;;;;19.63;55.15;101427.16;5041034;28;45596;-65
2021/09/03 07:26:43;;;;;;;;;25.00;22.75;;;;;19.74;55.38;101450.00;5041482;28;45352;-65
2021/09/03 07:29:09;;;;;;;;;27.75;26.75;;;;;19.75;55.52;101444.53;5040721;28;45903;-65
2021/09/03 07:31:34;;;;;;;;;32.50;30.50;;;;;19.75;55.47;101449.94;5048905;28;45640;-65
2021/09/03 07:34:00;;;;;;;;;37.25;32.00;;;;;19.76;55.73;101454.41;5054781;28;45257;-65
2021/09/03 07:36:26;;;;;;;;;28.75;26.00;;;;;19.76;55.25;101445.41;5040987;28;45944;-65
2021/09/03 07:38:51;;;;;;;;;31.00;28.00;;;;;19.80;55.23;101449.69;5054348;28;45315;-65
2021/09/03 07:41:17;;;;;;;;;25.75;23.50;;;;;19.82;55.37;101446.88;5039666;28;45410;-65
2021/09/03 07:43:43;;;;;;;;;25.00;24.50;;;;;19.80;55.52;101439.72;5040393;28;45524;-65
2021/09/03 07:46:08;;;;;;;;;29.50;25.75;;;;;19.87;55.55;101445.63;5040994;28;46175;-65
2021/09/03 07:48:34;;;;;;;;;21.50;21.25;;;;;19.87;55.37;101442.91;5036272;28;45499;-65
2021/09/03 07:51:00;;;;;;;;;28.75;27.50;;;;;19.92;55.42;101448.94;5053404;28;45374;-65
2021/09/03 07:53:25;;;;;;;;;28.25;27.75;;;;;19.88;55.47;101435.66;5040153;28;45442;-66
2021/09/03 07:55:51;;;;;;;;;26.25;25.50;;;;;19.94;55.50;101449.69;5026744;28;45458;-67
2021/09/03 07:58:17;;;;;;;;;32.00;28.00;;;;;19.92;55.63;101438.09;5038798;28;45457;-66
2021/09/03 08:00:42;;;;;;;;;29.00;27.00;;;;;19.96;55.16;101439.66;5039512;28;45529;-65
2021/09/03 08:03:09;;;;;;;;;34.25;31.25;;;;;20.03;55.14;101441.97;5039307;28;45628;-66
2021/09/03 08:05:34;;;;;;;;;28.50;25.25;;;;;20.04;55.02;101441.88;5039748;28;45380;-65
2021/09/03 08:08:01;;;;;;;;;25.50;24.75;;;;;20.05;55.12;101438.22;5039230;28;45556;-66
2021/09/03 08:10:29;;;;;;;;;29.50;25.50;;;;;20.05;55.51;101434.66;5040024;28;45351;-66
2021/09/03 08:12:54;;;;;;;;;31.00;26.75;;;;;20.13;55.74;101440.44;5039998;28;45789;-66
2021/09/03 08:15:20;;;;;;;;;24.25;21.75;;;;;20.17;55.16;101448.31;5039958;28;46507;-66
2021/09/03 08:17:45;;;;;;;;;27.75;26.25;;;;;20.22;55.63;101447.16;5039183;28;45331;-66
2021/09/03 08:20:14;;;;;;;;;25.00;25.00;;;;;20.22;55.37;101439.91;5039833;28;45447;-66
2021/09/03 08:22:39;;;;;;;;;33.75;28.75;;;;;20.23;55.03;101429.91;5038405;28;45474;-66
2021/09/03 08:25:06;;;;;;;;;29.75;26.75;;;;;20.29;55.37;101443.09;5039888;28;46303;-66
2021/09/03 08:27:32;;;;;;;;;29.25;24.75;;;;;20.25;55.09;101431.56;5034797;28;45628;-66
2021/09/03 08:29:57;;;;;;;;;26.50;24.00;;;;;20.25;55.11;101431.56;5039599;28;45542;-66
2021/09/03 08:32:23;;;;;;;;;26.50;26.00;;;;;20.35;54.89;101435.44;5039665;28;45345;-66
2021/09/03 08:34:48;;;;;;;;;32.75;26.25;;;;;20.42;54.96;101435.94;5033488;28;54853;-66
2021/09/03 08:37:13;;;;;;;;;24.25;22.00;;;;;20.42;54.76;101418.81;5038949;28;45439;-66
2021/09/03 08:39:39;;;;;;;;;27.75;25.75;;;;;20.47;55.21;101417.53;5031037;28;45458;-66
2021/09/03 08:42:04;;;;;;;;;25.25;22.50;;;;;20.56;54.79;101426.91;5036592;28;45359;-66
2021/09/03 08:44:31;;;;;;;;;35.25;29.25;;;;;20.60;54.36;101427.59;5039943;28;45516;-66
2021/09/03 08:46:56;;;;;;;;;29.75;28.25;;;;;20.57;54.77;101416.97;5039616;28;45426;-66
2021/09/03 08:49:22;;;;;;;;;35.00;30.75;;;;;20.65;54.72;101422.81;5039378;28;45584;-66
2021/09/03 08:51:48;;;;;;;;;27.25;25.25;;;;;20.66;55.01;101421.81;5040883;28;45737;-66
2021/09/03 08:54:13;;;;;;;;;29.00;27.25;;;;;20.72;54.56;101419.56;5042888;28;47299;-66
2021/09/03 08:56:38;;;;;;;;;26.75;25.50;;;;;20.79;54.23;101419.19;5031529;28;45469;-66
2021/09/03 08:59:04;;;;;;;;;26.50;23.75;;;;;20.77;54.53;101413.00;5038121;28;45455;-66
2021/09/03 09:01:29;;;;;;;;;28.25;27.00;;;;;20.84;54.42;101420.63;5038236;28;45628;-66
2021/09/03 09:03:55;;;;;;;;;27.75;25.50;;;;;20.89;54.45;101423.91;5038808;28;45442;-66
2021/09/03 09:06:25;;;;;;;;;22.25;21.25;;;;;20.92;54.88;101422.84;5039135;28;45194;-66
2021/09/03 09:09:03;;;;;;;;;25.75;23.00;;;;;20.98;54.15;101429.72;5039585;28;45480;-66
2021/09/03 09:11:30;;;;;;;;;27.25;22.25;;;;;21.02;53.76;101428.56;5056030;28;45379;-66
2021/09/03 09:14:01;;;;;;;;;27.25;24.00;;;;;21.02;53.91;101420.41;5042634;28;46113;-66
2021/09/03 09:16:30;;;;;;;;;25.50;23.25;;;;;21.08;54.20;101433.56;5023476;28;45528;-66
2021/09/03 09:19:01;;;;;;;;;24.50;22.75;;;;;21.13;54.42;101425.13;5038811;28;45349;-66
2021/09/03 09:21:30;;;;;;;;;21.50;20.75;;;;;21.08;53.80;101412.75;5039835;28;45915;-66
2021/09/03 09:24:04;;;;;;;;;25.75;20.00;;;;;21.14;54.29;101416.00;5034413;28;47095;-66
2021/09/03 09:26:57;;;;;;;;;24.75;20.75;;;;;21.21;54.00;101417.34;5039622;28;45265;-66
2021/09/03 09:29:28;;;;;;;;;22.75;20.00;;;;;21.28;53.45;101424.97;5044778;28;45450;-66
2021/09/03 09:32:02;;;;;;;;;24.00;21.50;;;;;21.25;53.40;101411.63;5038745;28;45572;-65
2021/09/03 09:34:33;;;;;;;;;22.50;20.75;;;;;21.36;53.47;101415.44;5038171;28;45392;-66
2021/09/03 09:37:05;;;;;;;;;22.25;18.50;;;;;21.41;53.84;101416.00;5039004;28;45288;-66
2021/09/03 09:39:49;;;;;;;;;19.75;19.50;;;;;21.46;53.39;101417.41;5038125;28;45697;-66
2021/09/03 09:42:30;;;;;;;;;19.75;18.00;;;;;21.52;53.27;101416.19;5038717;28;45412;-66
2021/09/03 09:45:07;;;;;;;;;18.00;18.00;;;;;21.59;54.07;101413.94;5038734;28;45404;-66
2021/09/03 09:47:33;;;;;;;;;17.75;17.75;;;;;21.62;53.91;101409.16;5038987;28;45541;-66
2021/09/03 09:50:19;;;;;;;;;18.75;18.50;;;;;21.69;52.56;101403.31;5037831;28;45763;-65
2021/09/03 09:52:44;;;;;;;;;16.00;15.00;;;;;21.72;53.06;101392.19;5035570;28;45324;-66
2021/09/03 09:55:09;;;;;;;;;17.25;15.50;;;;;21.80;52.38;101396.16;5026328;28;45629;-66
2021/09/03 09:57:35;;;;;;;;;14.25;12.50;;;;;21.84;52.37;101396.81;5039109;28;45445;-66
2021/09/03 10:00:05;;;;;;;;;20.00;16.75;;;;;21.88;52.28;101394.72;5038691;28;45510;-66
2021/09/03 10:02:33;;;;;;;;;16.00;16.00;;;;;21.92;52.39;101390.81;5037147;28;45512;-67
2021/09/03 10:05:01;;;;;;;;;17.75;16.25;;;;;21.91;52.34;101381.78;5038828;28;46211;-66
2021/09/03 10:07:27;;;;;;;;;22.00;17.50;;;;;21.96;52.49;101376.91;5037941;28;45468;-66
2021/09/03 10:09:52;;;;;;;;;18.75;15.75;;;;;22.02;52.23;101384.63;5038634;28;45484;-67
2021/09/03 10:12:19;;;;;;;;;18.50;18.50;;;;;22.02;52.60;101375.63;5037403;28;45401;-66
2021/09/03 10:14:44;;;;;;;;;17.25;16.75;;;;;22.13;52.72;101377.56;5042455;28;47239;-66
2021/09/03 10:17:11;;;;;;;;;14.75;14.75;;;;;22.18;52.46;101383.53;5038608;28;45323;-66
2021/09/03 10:19:40;;;;;;;;;20.50;16.50;;;;;22.24;52.19;101374.94;5038177;28;45454;-66
2021/09/03 10:22:07;;;;;;;;;20.00;16.75;;;;;22.29;52.28;101371.94;5049006;28;45386;-66
2021/09/03 10:24:35;;;;;;;;;16.00;16.00;;;;;22.34;51.76;101369.75;5029143;28;46066;-66
2021/09/03 10:27:02;;;;;;;;;15.75;12.25;;;;;22.39;51.66;101373.00;5051372;28;45545;-66
2021/09/03 10:29:34;;;;;;;;;11.00;11.00;;;;;22.42;51.58;101367.34;5044802;28;45504;-65
2021/09/03 10:32:06;;;;;;;;;16.75;15.25;;;;;22.48;50.78;101369.59;5040169;28;45521;-66
2021/09/03 10:34:41;;;;;;;;;14.50;13.25;;;;;22.51;51.22;101379.41;5038491;28;45414;-66
2021/09/03 10:37:12;;;;;;;;;14.25;12.25;;;;;22.57;51.01;101378.97;5025447;28;45408;-65
2021/09/03 10:40:04;;;;;;;;;14.25;13.75;;;;;22.61;50.92;101368.72;5038721;28;45213;-65
2021/09/03 10:42:43;;;;;;;;;13.25;12.50;;;;;22.64;51.14;101376.69;5029602;28;45777;-64
2021/09/03 10:45:10;;;;;;;;;15.25;14.75;;;;;22.68;51.01;101373.59;5033277;28;46107;-65
2021/09/03 10:47:41;;;;;;;;;15.75;15.50;;;;;22.72;51.53;101363.34;5042123;28;45527;-65
2021/09/03 10:50:16;;;;;;;;;13.75;13.75;;;;;22.80;51.17;101373.69;5028035;28;45514;-65
2021/09/03 10:53:06;;;;;;;;;16.75;14.00;;;;;22.87;51.26;101364.06;5041408;28;45388;-64
2021/09/03 10:56:10;;;;;;;;;13.25;13.25;;;;;22.92;50.92;101365.47;5032606;28;45368;-65
2021/09/03 10:59:13;;;;;;;;;15.50;14.50;;;;;22.97;50.58;101362.41;5041865;28;46659;-65
2021/09/03 11:01:49;;;;;;;;;16.50;15.00;;;;;22.96;51.28;101357.09;4998345;28;45378;-65
2021/09/03 11:04:15;;;;;;;;;12.25;12.25;;;;;23.00;51.82;101351.28;5033860;28;45278;-65
2021/09/03 11:06:50;;;;;;;;;18.50;16.00;;;;;23.10;51.15;101355.09;5042253;28;45584;-65
2021/09/03 11:09:15;;;;;;;;;17.75;16.50;;;;;23.16;51.00;101352.88;5042040;28;45489;-65